Time;durP1;ratioP1;P1;durP2;ratioP2;P2;SDS_P1;SDS_P2;PMS_P1;PMS_P2;Temp;Humidity;BMP_temperature;BMP_pressure;BME280_temperature;BME280_humidity;BME280_pressure;Samples;Min_cycle;Max_cycle;Signal;HPM_P1;HPM_P2
2021/11/06 00:01:05;;;;;;;;;;;21.90;41.40;;;;;;474563;251;2142;-47
2021/11/06 00:03:06;;;;;;;;;;;21.90;41.40;;;;;;474263;251;1086;-48
2021/11/06 00:05:08;;;;;;;;;;;21.90;41.30;;;;;;474250;251;1085;-47
2021/11/06 00:07:09;;;;;;;;;;;21.90;41.40;;;;;;474581;251;1377;-48
2021/11/06 00:09:10;;;;;;;;;;;21.90;41.30;;;;;;474234;251;1171;-48
2021/11/06 00:11:11;;;;;;;;;;;21.90;41.30;;;;;;474244;251;1246;-48
2021/11/06 00:13:13;;;;;;;;;;;21.90;41.30;;;;;;474653;251;1170;-48
2021/11/06 00:15:14;;;;;;;;;;;21.90;41.30;;;;;;474557;251;1133;-48
2021/11/06 00:17:15;;;;;;;;;;;21.90;41.30;;;;;;474149;251;1363;-47
2021/11/06 00:19:17;;;;;;;;;;;21.90;41.30;;;;;;474255;251;1106;-47
2021/11/06 00:21:18;;;;;;;;;;;22.00;41.30;;;;;;474245;247;2205;-47
2021/11/06 00:23:19;;;;;;;;;;;22.00;41.30;;;;;;474341;251;1042;-48
2021/11/06 00:25:23;;;;;;;;;;;22.00;41.30;;;;;;474248;251;1240;-48
2021/11/06 00:27:22;;;;;;;;;;;22.00;41.30;;;;;;474041;251;2155;-48
2021/11/06 00:29:23;;;;;;;;;;;22.00;41.30;;;;;;474236;251;1107;-48
2021/11/06 00:31:25;;;;;;;;;;;22.00;41.20;;;;;;474322;251;1126;-48
2021/11/06 00:33:26;;;;;;;;;;;22.00;41.20;;;;;;474621;251;1068;-47
2021/11/06 00:35:27;;;;;;;;;;;22.00;41.30;;;;;;474223;251;1108;-47
2021/11/06 00:37:29;;;;;;;;;;;22.00;41.20;;;;;;474525;251;1232;-47
2021/11/06 00:39:30;;;;;;;;;;;22.00;41.20;;;;;;474253;251;1201;-47
2021/11/06 00:41:31;;;;;;;;;;;22.10;41.20;;;;;;474386;244;2196;-47
2021/11/06 00:43:33;;;;;;;;;;;22.00;41.20;;;;;;474646;251;1049;-48
2021/11/06 00:45:34;;;;;;;;;;;22.10;41.20;;;;;;474200;251;1121;-48
2021/11/06 00:47:35;;;;;;;;;;;22.00;41.10;;;;;;474261;251;1129;-48
2021/11/06 00:49:36;;;;;;;;;;;22.10;41.20;;;;;;474529;251;1028;-48
2021/11/06 00:51:38;;;;;;;;;;;22.10;41.20;;;;;;474358;251;1337;-48
2021/11/06 00:53:39;;;;;;;;;;;22.10;41.20;;;;;;474380;251;1046;-48
2021/11/06 00:55:41;;;;;;;;;;;22.10;41.10;;;;;;474237;251;1303;-48
2021/11/06 00:57:42;;;;;;;;;;;22.10;41.10;;;;;;474428;251;1240;-47
2021/11/06 00:59:43;;;;;;;;;;;22.10;41.10;;;;;;474599;251;1078;-48
2021/11/06 01:01:44;;;;;;;;;;;22.10;41.10;;;;;;474158;251;2221;-47
2021/11/06 01:03:46;;;;;;;;;;;22.10;41.10;;;;;;474392;251;1069;-48
2021/11/06 01:05:47;;;;;;;;;;;22.10;41.10;;;;;;474669;251;1127;-48
2021/11/06 01:07:48;;;;;;;;;;;22.10;41.10;;;;;;474255;251;1176;-47
2021/11/06 01:09:50;;;;;;;;;;;22.10;41.10;;;;;;474465;251;1141;-48
2021/11/06 01:11:51;;;;;;;;;;;22.10;41.00;;;;;;474647;246;1372;-47
2021/11/06 01:13:52;;;;;;;;;;;22.10;41.00;;;;;;474285;251;1198;-48
2021/11/06 01:15:54;;;;;;;;;;;22.20;41.10;;;;;;474365;251;1156;-48
2021/11/06 01:17:55;;;;;;;;;;;22.20;41.10;;;;;;474380;251;1233;-48
2021/11/06 01:19:56;;;;;;;;;;;22.20;41.10;;;;;;474506;251;1255;-48
2021/11/06 01:21:58;;;;;;;;;;;22.20;41.10;;;;;;474644;251;2197;-48
2021/11/06 01:23:59;;;;;;;;;;;22.20;41.10;;;;;;474686;251;1093;-48
2021/11/06 01:26:02;;;;;;;;;;;22.20;41.00;;;;;;474298;251;1173;-47
2021/11/06 01:28:02;;;;;;;;;;;22.20;41.00;;;;;;474146;251;2442;-47
2021/11/06 01:30:03;;;;;;;;;;;22.20;41.00;;;;;;474441;251;1145;-48
2021/11/06 01:32:04;;;;;;;;;;;22.20;41.10;;;;;;474100;251;1187;-48
2021/11/06 01:34:06;;;;;;;;;;;22.20;41.00;;;;;;474168;251;1078;-48
2021/11/06 01:36:07;;;;;;;;;;;22.20;41.00;;;;;;474619;251;1238;-47
2021/11/06 01:38:08;;;;;;;;;;;22.20;41.00;;;;;;474468;251;1241;-47
2021/11/06 01:40:10;;;;;;;;;;;22.20;41.00;;;;;;474560;251;1140;-47
2021/11/06 01:42:11;;;;;;;;;;;22.20;41.00;;;;;;474605;251;2125;-47
2021/11/06 01:44:12;;;;;;;;;;;22.30;41.00;;;;;;474704;251;1003;-47
2021/11/06 01:46:13;;;;;;;;;;;22.20;41.00;;;;;;474683;251;1084;-48
2021/11/06 01:48:15;;;;;;;;;;;22.20;41.00;;;;;;474255;251;1397;-47
2021/11/06 01:50:16;;;;;;;;;;;22.30;41.10;;;;;;474456;251;1378;-47
2021/11/06 01:52:17;;;;;;;;;;;22.30;41.00;;;;;;474273;251;1094;-48
2021/11/06 01:54:20;;;;;;;;;;;22.30;41.00;;;;;;474321;251;1339;-48
2021/11/06 01:56:20;;;;;;;;;;;22.30;41.00;;;;;;474115;251;1750;-47
2021/11/06 01:58:21;;;;;;;;;;;22.30;41.00;;;;;;474184;251;1508;-48
2021/11/06 02:00:23;;;;;;;;;;;22.30;41.00;;;;;;474648;251;1320;-48
2021/11/06 02:02:24;;;;;;;;;;;22.30;41.00;;;;;;474458;251;2200;-48
2021/11/06 02:04:25;;;;;;;;;;;22.30;41.00;;;;;;474684;251;1067;-48
2021/11/06 02:06:27;;;;;;;;;;;22.30;41.00;;;;;;474640;251;1202;-48
2021/11/06 02:08:28;;;;;;;;;;;22.30;41.00;;;;;;474628;251;1097;-48
2021/11/06 02:10:29;;;;;;;;;;;22.30;41.00;;;;;;474263;251;1159;-47
2021/11/06 02:12:31;;;;;;;;;;;22.30;41.00;;;;;;474432;251;1222;-48
2021/11/06 02:14:32;;;;;;;;;;;22.30;41.00;;;;;;474647;251;1125;-48
2021/11/06 02:16:33;;;;;;;;;;;22.30;41.00;;;;;;474616;251;1273;-48
2021/11/06 02:18:35;;;;;;;;;;;22.30;40.90;;;;;;474672;251;1182;-47
2021/11/06 02:20:36;;;;;;;;;;;22.30;40.90;;;;;;474617;251;1422;-48
2021/11/06 02:22:37;;;;;;;;;;;22.30;40.90;;;;;;474476;251;2174;-48
2021/11/06 02:24:38;;;;;;;;;;;22.30;41.00;;;;;;474488;251;1235;-48
2021/11/06 02:26:40;;;;;;;;;;;22.30;41.00;;;;;;474134;251;1298;-48
2021/11/06 02:28:41;;;;;;;;;;;22.30;40.90;;;;;;474220;251;1014;-48
2021/11/06 02:30:43;;;;;;;;;;;22.30;40.90;;;;;;474651;251;1422;-48
2021/11/06 02:32:44;;;;;;;;;;;22.30;40.90;;;;;;474644;251;1157;-48
2021/11/06 02:34:45;;;;;;;;;;;22.30;40.90;;;;;;474241;251;1036;-48
2021/11/06 02:36:46;;;;;;;;;;;22.30;40.90;;;;;;474432;251;1190;-47
2021/11/06 02:38:48;;;;;;;;;;;22.40;40.90;;;;;;474644;251;1057;-48
2021/11/06 02:40:49;;;;;;;;;;;22.40;40.90;;;;;;474502;251;1263;-48
2021/11/06 02:42:50;;;;;;;;;;;22.40;41.00;;;;;;474615;251;2133;-48
2021/11/06 02:44:52;;;;;;;;;;;22.40;40.90;;;;;;474608;251;1023;-47
2021/11/06 02:46:53;;;;;;;;;;;22.40;40.90;;;;;;474462;251;1088;-48
2021/11/06 02:48:54;;;;;;;;;;;22.40;40.90;;;;;;474721;251;975;-47
2021/11/06 02:50:56;;;;;;;;;;;22.40;40.90;;;;;;474717;251;982;-48
2021/11/06 02:52:57;;;;;;;;;;;22.40;40.90;;;;;;474233;251;1174;-48
2021/11/06 02:54:58;;;;;;;;;;;22.40;40.80;;;;;;474265;251;1082;-48
2021/11/06 02:56:59;;;;;;;;;;;22.40;40.90;;;;;;474223;251;1226;-48
2021/11/06 02:59:01;;;;;;;;;;;22.40;40.90;;;;;;474618;251;1068;-48
2021/11/06 03:01:02;;;;;;;;;;;22.40;40.90;;;;;;474285;251;1103;-48
2021/11/06 03:03:03;;;;;;;;;;;22.40;40.90;;;;;;474246;251;2213;-47
2021/11/06 03:05:05;;;;;;;;;;;22.50;40.90;;;;;;474264;251;1127;-48
2021/11/06 03:07:06;;;;;;;;;;;22.50;40.90;;;;;;474572;251;1266;-48
2021/11/06 03:09:08;;;;;;;;;;;22.50;40.90;;;;;;474667;251;1045;-48
2021/11/06 03:11:09;;;;;;;;;;;22.50;40.90;;;;;;474183;251;1220;-48
2021/11/06 03:13:10;;;;;;;;;;;22.50;40.90;;;;;;474632;251;1070;-48
2021/11/06 03:15:11;;;;;;;;;;;22.40;40.80;;;;;;474628;251;1056;-47
2021/11/06 03:17:13;;;;;;;;;;;22.50;40.90;;;;;;474187;251;1362;-48
2021/11/06 03:19:14;;;;;;;;;;;22.50;40.90;;;;;;474653;251;1128;-48
2021/11/06 03:21:15;;;;;;;;;;;22.40;40.80;;;;;;474633;251;1197;-47
2021/11/06 03:23:17;;;;;;;;;;;22.40;40.90;;;;;;474655;251;2142;-48
2021/11/06 03:25:18;;;;;;;;;;;22.50;40.90;;;;;;474702;251;1033;-47
2021/11/06 03:27:19;;;;;;;;;;;22.50;40.80;;;;;;474230;251;1187;-48
2021/11/06 03:29:21;;;;;;;;;;;22.50;40.80;;;;;;474307;251;1060;-47
2021/11/06 03:31:22;;;;;;;;;;;22.50;40.80;;;;;;474255;251;1385;-48
2021/11/06 03:33:23;;;;;;;;;;;22.50;40.80;;;;;;474311;251;1157;-48
2021/11/06 03:35:25;;;;;;;;;;;22.50;40.80;;;;;;474664;251;1222;-48
2021/11/06 03:37:26;;;;;;;;;;;22.50;40.80;;;;;;474237;251;1362;-48
2021/11/06 03:39:27;;;;;;;;;;;22.50;40.80;;;;;;474269;251;997;-47
2021/11/06 03:41:29;;;;;;;;;;;22.50;40.80;;;;;;474505;251;2209;-48
2021/11/06 03:43:30;;;;;;;;;;;22.50;40.80;;;;;;474707;251;1077;-48
2021/11/06 03:45:31;;;;;;;;;;;22.50;40.80;;;;;;474693;251;1099;-48
2021/11/06 03:47:34;;;;;;;;;;;22.50;40.80;;;;;;474641;251;1190;-47
2021/11/06 03:49:34;;;;;;;;;;;22.50;40.80;;;;;;474666;251;1993;-48
2021/11/06 03:51:35;;;;;;;;;;;22.50;40.80;;;;;;474644;251;1226;-48
2021/11/06 03:53:37;;;;;;;;;;;22.50;40.70;;;;;;474696;251;1065;-48
2021/11/06 03:55:38;;;;;;;;;;;22.60;40.80;;;;;;474712;251;1436;-48
2021/11/06 03:57:39;;;;;;;;;;;22.50;40.70;;;;;;474252;251;1234;-47
2021/11/06 03:59:41;;;;;;;;;;;22.60;40.80;;;;;;474723;251;1112;-48
2021/11/06 04:01:42;;;;;;;;;;;22.60;40.80;;;;;;474283;251;2147;-48
2021/11/06 04:03:43;;;;;;;;;;;22.60;40.80;;;;;;474445;251;1039;-48
2021/11/06 04:05:45;;;;;;;;;;;22.60;40.80;;;;;;474735;251;1204;-48
2021/11/06 04:07:46;;;;;;;;;;;22.60;40.80;;;;;;474357;251;1318;-48
2021/11/06 04:09:47;;;;;;;;;;;22.60;40.70;;;;;;474282;251;1200;-48
2021/11/06 04:11:50;;;;;;;;;;;22.60;40.80;;;;;;474268;251;1077;-47
2021/11/06 04:13:50;;;;;;;;;;;22.60;40.70;;;;;;474595;251;2183;-48
2021/11/06 04:15:51;;;;;;;;;;;22.60;40.70;;;;;;474540;251;1059;-48
2021/11/06 04:17:52;;;;;;;;;;;22.60;40.70;;;;;;474272;251;1200;-48
2021/11/06 04:19:54;;;;;;;;;;;22.60;40.70;;;;;;474302;251;1121;-48
2021/11/06 04:21:55;;;;;;;;;;;22.60;40.70;;;;;;474210;246;2202;-48
2021/11/06 04:23:56;;;;;;;;;;;22.60;40.70;;;;;;474447;251;1080;-47
2021/11/06 04:25:58;;;;;;;;;;;22.60;40.70;;;;;;474771;251;1063;-48
2021/11/06 04:27:59;;;;;;;;;;;22.60;40.60;;;;;;474310;251;1161;-48
2021/11/06 04:30:00;;;;;;;;;;;22.60;40.70;;;;;;474665;251;1108;-48
2021/11/06 04:32:02;;;;;;;;;;;22.60;40.60;;;;;;474324;251;1340;-48
2021/11/06 04:34:03;;;;;;;;;;;22.70;40.70;;;;;;474257;251;1068;-47
2021/11/06 04:36:06;;;;;;;;;;;22.60;40.70;;;;;;474252;251;1138;-48
2021/11/06 04:38:07;;;;;;;;;;;22.60;40.70;;;;;;474388;251;1040;-48
2021/11/06 04:40:09;;;;;;;;;;;22.60;40.70;;;;;;474683;251;1082;-48
2021/11/06 04:42:10;;;;;;;;;;;22.50;40.80;;;;;;474271;251;2241;-48
2021/11/06 04:44:11;;;;;;;;;;;22.30;41.10;;;;;;474306;251;1118;-47
2021/11/06 04:46:12;;;;;;;;;;;22.20;41.50;;;;;;474657;251;1157;-47
2021/11/06 04:48:14;;;;;;;;;;;22.00;41.80;;;;;;474346;251;1131;-48
2021/11/06 04:50:15;;;;;;;;;;;21.90;42.10;;;;;;474724;251;1194;-47
2021/11/06 04:52:16;;;;;;;;;;;21.80;42.30;;;;;;474658;251;1321;-47
2021/11/06 04:54:18;;;;;;;;;;;21.70;42.40;;;;;;474712;251;1199;-47
2021/11/06 04:56:19;;;;;;;;;;;21.70;42.60;;;;;;474634;251;1216;-47
2021/11/06 04:58:20;;;;;;;;;;;21.60;42.70;;;;;;474290;251;1275;-48
2021/11/06 05:00:22;;;;;;;;;;;21.60;42.80;;;;;;474723;251;1140;-47
2021/11/06 05:02:24;;;;;;;;;;;21.50;42.90;;;;;;474248;251;2201;-47
2021/11/06 05:04:25;;;;;;;;;;;21.50;42.90;;;;;;474757;251;1048;-47
2021/11/06 05:06:27;;;;;;;;;;;21.50;43.00;;;;;;474467;251;1696;-48
2021/11/06 05:08:28;;;;;;;;;;;21.50;43.10;;;;;;474684;251;2123;-47
2021/11/06 05:10:29;;;;;;;;;;;21.40;43.20;;;;;;474668;251;1085;-47
2021/11/06 05:12:30;;;;;;;;;;;21.40;43.20;;;;;;474235;251;1477;-47
2021/11/06 05:14:32;;;;;;;;;;;21.40;43.20;;;;;;474715;251;1073;-47
2021/11/06 05:16:33;;;;;;;;;;;21.30;43.30;;;;;;474628;244;1384;-47
2021/11/06 05:18:34;;;;;;;;;;;21.30;43.40;;;;;;474715;251;1056;-47
2021/11/06 05:20:37;;;;;;;;;;;21.20;43.40;;;;;;474562;251;1081;-47
2021/11/06 05:22:37;;;;;;;;;;;21.30;43.50;;;;;;474204;251;2305;-47
2021/11/06 05:24:39;;;;;;;;;;;21.20;43.40;;;;;;474750;251;1197;-47
2021/11/06 05:26:40;;;;;;;;;;;21.20;43.50;;;;;;474745;251;1373;-48
2021/11/06 05:28:42;;;;;;;;;;;21.20;43.50;;;;;;474322;251;1222;-47
2021/11/06 05:30:43;;;;;;;;;;;21.20;43.60;;;;;;474293;251;1090;-47
2021/11/06 05:32:44;;;;;;;;;;;21.20;43.50;;;;;;474240;251;1214;-47
2021/11/06 05:34:46;;;;;;;;;;;21.20;43.60;;;;;;474702;251;1083;-47
2021/11/06 05:36:47;;;;;;;;;;;21.20;43.50;;;;;;474270;251;1056;-47
2021/11/06 05:38:49;;;;;;;;;;;21.20;43.50;;;;;;474402;251;994;-47
2021/11/06 05:40:50;;;;;;;;;;;21.20;43.50;;;;;;474665;251;1093;-47
2021/11/06 05:42:52;;;;;;;;;;;21.20;43.50;;;;;;474489;251;2189;-47
2021/11/06 05:44:53;;;;;;;;;;;21.20;43.50;;;;;;474734;251;1027;-47
2021/11/06 05:46:54;;;;;;;;;;;21.10;43.50;;;;;;474416;251;1077;-47
2021/11/06 05:48:56;;;;;;;;;;;21.20;43.50;;;;;;474572;251;1105;-47
2021/11/06 05:50:57;;;;;;;;;;;21.20;43.50;;;;;;474677;251;1058;-47
2021/11/06 05:52:58;;;;;;;;;;;21.20;43.50;;;;;;474666;251;1088;-47
2021/11/06 05:54:59;;;;;;;;;;;21.20;43.50;;;;;;474722;251;1044;-48
2021/11/06 05:57:01;;;;;;;;;;;21.20;43.40;;;;;;474729;251;1075;-47
2021/11/06 05:59:02;;;;;;;;;;;21.20;43.50;;;;;;474521;251;1211;-47
2021/11/06 06:01:03;;;;;;;;;;;21.10;43.50;;;;;;474285;251;1889;-47
2021/11/06 06:03:05;;;;;;;;;;;21.10;43.50;;;;;;474323;251;2119;-47
2021/11/06 06:05:06;;;;;;;;;;;21.10;43.50;;;;;;474747;251;1064;-47
2021/11/06 06:07:07;;;;;;;;;;;21.20;43.50;;;;;;474263;251;1022;-47
2021/11/06 06:09:09;;;;;;;;;;;21.20;43.40;;;;;;474315;251;1106;-47
2021/11/06 06:11:10;;;;;;;;;;;21.20;43.40;;;;;;474649;251;1102;-47
2021/11/06 06:13:11;;;;;;;;;;;21.10;43.50;;;;;;474749;251;1066;-46
2021/11/06 06:15:14;;;;;;;;;;;21.10;43.50;;;;;;474301;251;1144;-47
2021/11/06 06:17:15;;;;;;;;;;;21.10;43.50;;;;;;474679;251;1082;-48
2021/11/06 06:19:17;;;;;;;;;;;21.10;43.50;;;;;;474745;251;1074;-47
2021/11/06 06:21:18;;;;;;;;;;;21.10;43.50;;;;;;474689;251;1074;-47
2021/11/06 06:23:19;;;;;;;;;;;21.10;43.40;;;;;;474678;251;2141;-47
2021/11/06 06:25:23;;;;;;;;;;;21.20;43.50;;;;;;474702;251;1146;-47
2021/11/06 06:27:22;;;;;;;;;;;21.10;43.40;;;;;;474267;251;1999;-47
2021/11/06 06:29:23;;;;;;;;;;;21.10;43.50;;;;;;474373;251;1223;-47
2021/11/06 06:31:25;;;;;;;;;;;21.10;43.50;;;;;;474654;251;1125;-47
2021/11/06 06:33:26;;;;;;;;;;;21.10;43.60;;;;;;474699;251;1190;-47
2021/11/06 06:35:29;;;;;;;;;;;21.10;43.70;;;;;;474425;251;1102;-47
2021/11/06 06:37:28;;;;;;;;;;;21.10;43.60;;;;;;474192;251;2560;-47
2021/11/06 06:39:30;;;;;;;;;;;21.10;43.60;;;;;;474734;251;1035;-47
2021/11/06 06:41:32;;;;;;;;;;;21.00;43.60;;;;;;474578;251;1316;-47
2021/11/06 06:43:33;;;;;;;;;;;21.00;43.70;;;;;;474239;251;2418;-47
2021/11/06 06:45:34;;;;;;;;;;;21.00;43.80;;;;;;474284;244;1428;-47
2021/11/06 06:47:35;;;;;;;;;;;20.90;43.80;;;;;;474248;251;1179;-47
2021/11/06 06:49:37;;;;;;;;;;;20.90;43.80;;;;;;474746;251;1185;-47
2021/11/06 06:51:38;;;;;;;;;;;21.00;43.80;;;;;;474221;251;1543;-48
2021/11/06 06:53:39;;;;;;;;;;;20.90;43.90;;;;;;474673;251;1209;-47
2021/11/06 06:55:41;;;;;;;;;;;20.90;43.90;;;;;;474689;251;1161;-47
2021/11/06 06:57:42;;;;;;;;;;;20.90;43.90;;;;;;474682;251;1313;-47
2021/11/06 06:59:43;;;;;;;;;;;20.90;43.80;;;;;;474334;251;1150;-48
2021/11/06 07:01:46;;;;;;;;;;;20.90;43.80;;;;;;474463;251;1311;-47
2021/11/06 07:03:46;;;;;;;;;;;20.90;43.80;;;;;;474446;251;2141;-47
2021/11/06 07:05:48;;;;;;;;;;;20.90;43.80;;;;;;474706;244;1352;-48
2021/11/06 07:07:49;;;;;;;;;;;20.90;43.80;;;;;;474723;251;1133;-47
2021/11/06 07:09:51;;;;;;;;;;;20.80;43.80;;;;;;474583;251;1037;-47
2021/11/06 07:11:52;;;;;;;;;;;20.80;44.00;;;;;;474512;246;1621;-47
2021/11/06 07:13:53;;;;;;;;;;;20.80;44.00;;;;;;474770;251;1050;-47
2021/11/06 07:15:54;;;;;;;;;;;20.80;43.90;;;;;;474243;251;1232;-47
2021/11/06 07:17:55;;;;;;;;;;;20.80;43.90;;;;;;474652;251;1024;-47
2021/11/06 07:19:57;;;;;;;;;;;20.80;43.90;;;;;;474686;251;1054;-47
2021/11/06 07:21:58;;;;;;;;;;;20.80;43.90;;;;;;474507;251;1224;-48
2021/11/06 07:23:59;;;;;;;;;;;20.80;43.80;;;;;;474641;251;2195;-47
2021/11/06 07:26:02;;;;;;;;;;;20.80;43.90;;;;;;474378;251;1133;-47
2021/11/06 07:28:03;;;;;;;;;;;20.90;43.90;;;;;;474247;251;2489;-47
2021/11/06 07:30:04;;;;;;;;;;;20.90;43.80;;;;;;474277;251;2099;-47
2021/11/06 07:32:05;;;;;;;;;;;20.90;43.70;;;;;;474629;251;1246;-48
2021/11/06 07:34:06;;;;;;;;;;;20.90;43.70;;;;;;474556;251;1171;-47
2021/11/06 07:36:09;;;;;;;;;;;20.90;43.70;;;;;;474616;251;1257;-47
2021/11/06 07:38:09;;;;;;;;;;;20.90;43.70;;;;;;474547;251;2140;-47
2021/11/06 07:40:11;;;;;;;;;;;20.90;43.80;;;;;;474418;251;1090;-47
2021/11/06 07:42:12;;;;;;;;;;;20.90;43.70;;;;;;474132;251;2036;-47
2021/11/06 07:44:13;;;;;;;;;;;20.90;43.70;;;;;;474249;251;2134;-47
2021/11/06 07:46:14;;;;;;;;;;;20.90;43.70;;;;;;474294;251;1162;-47
2021/11/06 07:48:15;;;;;;;;;;;20.90;43.70;;;;;;474254;251;1074;-47
2021/11/06 07:50:18;;;;;;;;;;;20.90;43.70;;;;;;474674;251;1060;-47
2021/11/06 07:52:18;;;;;;;;;;;21.00;43.70;;;;;;474209;251;2276;-47
2021/11/06 07:54:20;;;;;;;;;;;21.00;43.60;;;;;;474232;251;1073;-47
2021/11/06 07:56:21;;;;;;;;;;;21.00;43.60;;;;;;474235;251;1073;-48
2021/11/06 07:58:22;;;;;;;;;;;21.00;43.60;;;;;;474369;251;1408;-47
2021/11/06 08:00:24;;;;;;;;;;;20.90;43.60;;;;;;474295;251;1228;-47
2021/11/06 08:02:25;;;;;;;;;;;21.00;43.60;;;;;;474717;251;1238;-47
2021/11/06 08:04:26;;;;;;;;;;;20.90;43.50;;;;;;474730;251;2209;-48
2021/11/06 08:06:28;;;;;;;;;;;21.00;43.60;;;;;;474186;251;1070;-47
2021/11/06 08:08:29;;;;;;;;;;;21.00;43.50;;;;;;474624;251;1232;-47
2021/11/06 08:10:30;;;;;;;;;;;21.00;43.50;;;;;;474217;251;1123;-48
2021/11/06 08:12:33;;;;;;;;;;;21.00;43.50;;;;;;474142;251;1199;-47
2021/11/06 08:14:33;;;;;;;;;;;20.90;43.50;;;;;;474348;251;2379;-47
2021/11/06 08:16:34;;;;;;;;;;;21.00;43.60;;;;;;474263;251;1177;-47
2021/11/06 08:18:35;;;;;;;;;;;20.90;43.60;;;;;;474411;251;1194;-47
2021/11/06 08:20:37;;;;;;;;;;;20.90;43.70;;;;;;474530;251;1444;-47
2021/11/06 08:22:38;;;;;;;;;;;20.90;43.70;;;;;;474284;251;1284;-46
2021/11/06 08:24:39;;;;;;;;;;;20.80;43.70;;;;;;474649;251;2110;-47
2021/11/06 08:26:41;;;;;;;;;;;20.80;43.80;;;;;;474604;251;1329;-47
2021/11/06 08:28:42;;;;;;;;;;;20.80;43.80;;;;;;474229;251;1064;-47
2021/11/06 08:30:43;;;;;;;;;;;20.80;43.80;;;;;;474331;251;1312;-47
2021/11/06 08:32:45;;;;;;;;;;;20.80;43.80;;;;;;474274;251;1188;-47
2021/11/06 08:34:46;;;;;;;;;;;20.80;43.80;;;;;;474616;251;1034;-47
2021/11/06 08:36:47;;;;;;;;;;;20.80;43.90;;;;;;474356;251;1217;-47
2021/11/06 08:38:49;;;;;;;;;;;20.80;44.00;;;;;;474663;251;1041;-47
2021/11/06 08:40:50;;;;;;;;;;;20.70;44.00;;;;;;474264;251;1400;-47
2021/11/06 08:42:52;;;;;;;;;;;20.70;44.00;;;;;;474689;251;1094;-47
2021/11/06 08:44:55;;;;;;;;;;;20.70;43.90;;;;;;474697;251;2133;-47
2021/11/06 08:46:55;;;;;;;;;;;20.70;43.90;;;;;;474166;251;2490;-47
2021/11/06 08:48:56;;;;;;;;;;;20.70;44.00;;;;;;474681;251;1058;-47
2021/11/06 08:50:58;;;;;;;;;;;20.70;43.90;;;;;;474655;251;1121;-47
2021/11/06 08:52:59;;;;;;;;;;;20.70;43.90;;;;;;474316;251;1079;-47
2021/11/06 08:55:00;;;;;;;;;;;20.70;43.90;;;;;;474723;251;1078;-47
2021/11/06 08:57:04;;;;;;;;;;;20.70;44.00;;;;;;474176;251;1106;-47
2021/11/06 08:59:03;;;;;;;;;;;20.70;44.10;;;;;;474503;251;1523;-48
2021/11/06 09:01:04;;;;;;;;;;;20.70;44.00;;;;;;474577;251;1204;-47
2021/11/06 09:03:05;;;;;;;;;;;20.70;44.00;;;;;;474754;251;1046;-47
2021/11/06 09:05:07;;;;;;;;;;;20.70;43.90;;;;;;474358;251;2126;-47
2021/11/06 09:07:08;;;;;;;;;;;20.70;44.00;;;;;;474259;251;1165;-47
2021/11/06 09:09:09;;;;;;;;;;;20.80;43.90;;;;;;474541;251;1054;-47
2021/11/06 09:11:11;;;;;;;;;;;20.80;43.80;;;;;;474252;251;1072;-47
2021/11/06 09:13:12;;;;;;;;;;;20.80;43.90;;;;;;474363;251;1084;-47
2021/11/06 09:15:13;;;;;;;;;;;20.70;43.90;;;;;;474551;251;1059;-47
2021/11/06 09:17:15;;;;;;;;;;;20.80;43.80;;;;;;474203;251;1177;-47
2021/11/06 09:19:16;;;;;;;;;;;20.80;43.80;;;;;;474551;251;1271;-47
2021/11/06 09:21:20;;;;;;;;;;;20.80;43.80;;;;;;474267;251;1711;-47
2021/11/06 09:23:18;;;;;;;;;;;20.80;43.80;;;;;;474523;251;1847;-47
2021/11/06 09:25:20;;;;;;;;;;;20.80;43.70;;;;;;474672;251;2133;-47
2021/11/06 09:27:21;;;;;;;;;;;20.80;43.60;;;;;;474437;251;1204;-47
2021/11/06 09:29:22;;;;;;;;;;;20.80;43.60;;;;;;474330;251;1086;-48
2021/11/06 09:31:24;;;;;;;;;;;20.80;43.70;;;;;;474488;251;1360;-47
2021/11/06 09:33:25;;;;;;;;;;;20.80;43.70;;;;;;474375;251;1101;-47
2021/11/06 09:35:26;;;;;;;;;;;20.80;43.70;;;;;;474289;251;1074;-47
2021/11/06 09:37:28;;;;;;;;;;;20.90;43.70;;;;;;474668;251;1490;-47
2021/11/06 09:39:29;;;;;;;;;;;20.90;43.70;;;;;;474624;251;1078;-48
2021/11/06 09:41:31;;;;;;;;;;;20.90;43.70;;;;;;474665;251;1146;-47
2021/11/06 09:43:32;;;;;;;;;;;20.80;43.70;;;;;;474529;251;2209;-47
2021/11/06 09:45:33;;;;;;;;;;;20.80;43.70;;;;;;474686;251;1055;-47
2021/11/06 09:47:34;;;;;;;;;;;20.80;43.70;;;;;;474232;251;1220;-47
2021/11/06 09:49:36;;;;;;;;;;;20.80;43.70;;;;;;474618;251;1077;-47
2021/11/06 09:51:37;;;;;;;;;;;20.80;43.70;;;;;;474587;251;1168;-47
2021/11/06 09:53:40;;;;;;;;;;;20.80;43.80;;;;;;474393;251;1151;-47
2021/11/06 09:55:40;;;;;;;;;;;20.80;43.80;;;;;;474607;251;2292;-47
2021/11/06 09:57:42;;;;;;;;;;;20.80;43.80;;;;;;474269;251;1233;-47
2021/11/06 09:59:43;;;;;;;;;;;20.80;43.80;;;;;;474715;251;1115;-47
2021/11/06 10:01:44;;;;;;;;;;;20.80;43.80;;;;;;474209;245;1461;-47
2021/11/06 10:03:46;;;;;;;;;;;20.80;43.80;;;;;;474671;251;2154;-48
2021/11/06 10:05:47;;;;;;;;;;;20.70;43.80;;;;;;474674;251;1056;-47
2021/11/06 10:07:48;;;;;;;;;;;20.80;43.80;;;;;;474184;251;1104;-47
2021/11/06 10:09:50;;;;;;;;;;;20.70;43.80;;;;;;474655;251;1024;-47
2021/11/06 10:11:52;;;;;;;;;;;20.70;43.80;;;;;;474289;244;1164;-48
2021/11/06 10:13:52;;;;;;;;;;;20.70;43.80;;;;;;474179;251;2180;-47
2021/11/06 10:15:54;;;;;;;;;;;20.70;43.90;;;;;;474656;251;1282;-48
2021/11/06 10:17:55;;;;;;;;;;;20.70;44.00;;;;;;474211;251;1249;-47
2021/11/06 10:19:56;;;;;;;;;;;20.70;43.90;;;;;;474432;251;1071;-47
2021/11/06 10:21:58;;;;;;;;;;;20.70;43.90;;;;;;474167;251;1227;-47
2021/11/06 10:23:59;;;;;;;;;;;20.60;43.90;;;;;;474631;251;2121;-47
2021/11/06 10:26:01;;;;;;;;;;;20.60;44.10;;;;;;474615;251;1269;-47
2021/11/06 10:28:02;;;;;;;;;;;20.70;44.00;;;;;;474245;251;1256;-47
2021/11/06 10:30:03;;;;;;;;;;;20.60;44.00;;;;;;474388;251;1072;-47
2021/11/06 10:32:05;;;;;;;;;;;20.60;44.00;;;;;;474162;251;1152;-47
2021/11/06 10:34:06;;;;;;;;;;;20.60;44.10;;;;;;474203;251;1203;-47
2021/11/06 10:36:07;;;;;;;;;;;20.60;44.10;;;;;;474463;251;1428;-47
2021/11/06 10:38:09;;;;;;;;;;;20.60;44.20;;;;;;474280;251;1174;-47
2021/11/06 10:40:10;;;;;;;;;;;20.60;44.20;;;;;;474347;251;1143;-47
2021/11/06 10:42:11;;;;;;;;;;;20.60;44.20;;;;;;474038;251;1298;-47
2021/11/06 10:44:12;;;;;;;;;;;20.60;44.20;;;;;;474069;251;2200;-47
2021/11/06 10:46:16;;;;;;;;;;;20.60;44.10;;;;;;474127;251;1369;-47
2021/11/06 10:48:16;;;;;;;;;;;20.60;44.20;;;;;;474227;251;2252;-47
2021/11/06 10:50:17;;;;;;;;;;;20.60;44.20;;;;;;474260;251;1198;-47
2021/11/06 10:52:18;;;;;;;;;;;20.60;44.10;;;;;;474162;251;1511;-47
2021/11/06 10:54:20;;;;;;;;;;;20.60;44.00;;;;;;474575;251;1053;-47
2021/11/06 10:56:21;;;;;;;;;;;20.70;44.00;;;;;;474558;246;1384;-47
2021/11/06 10:58:22;;;;;;;;;;;20.60;44.00;;;;;;474637;251;1072;-48
2021/11/06 11:00:24;;;;;;;;;;;20.60;44.00;;;;;;474181;251;1098;-48
2021/11/06 11:02:25;;;;;;;;;;;20.60;44.00;;;;;;474175;251;1180;-47
2021/11/06 11:04:27;;;;;;;;;;;20.60;44.00;;;;;;474207;251;2138;-47
2021/11/06 11:06:32;;;;;;;;;;;20.70;43.90;;;;;;474071;244;1442;-47
2021/11/06 11:08:30;;;;;;;;;;;20.70;43.90;;;;;;474166;251;2025;-47
2021/11/06 11:10:31;;;;;;;;;;;20.70;43.80;;;;;;474580;251;1263;-48
2021/11/06 11:12:35;;;;;;;;;;;20.70;43.70;;;;;;474118;251;1187;-47
2021/11/06 11:14:34;;;;;;;;;;;20.70;43.70;;;;;;473935;251;1750;-47
2021/11/06 11:16:36;;;;;;;;;;;20.70;43.80;;;;;;474139;251;1403;-48
2021/11/06 11:18:37;;;;;;;;;;;20.70;43.90;;;;;;474271;251;1258;-47
2021/11/06 11:20:39;;;;;;;;;;;20.70;43.80;;;;;;474570;251;1662;-47
2021/11/06 11:22:40;;;;;;;;;;;20.70;43.80;;;;;;474192;251;1181;-47
2021/11/06 11:24:42;;;;;;;;;;;20.80;43.80;;;;;;474112;251;2142;-47
2021/11/06 11:26:43;;;;;;;;;;;20.80;43.80;;;;;;474329;251;1145;-47
2021/11/06 11:28:44;;;;;;;;;;;20.70;43.80;;;;;;474455;251;1047;-48
2021/11/06 11:30:46;;;;;;;;;;;20.70;43.70;;;;;;474029;243;1238;-47
2021/11/06 11:32:47;;;;;;;;;;;20.70;43.70;;;;;;474128;251;1220;-47
2021/11/06 11:34:48;;;;;;;;;;;20.70;43.80;;;;;;474441;251;1040;-47
2021/11/06 11:36:49;;;;;;;;;;;20.70;43.70;;;;;;474383;251;1216;-48
2021/11/06 11:38:51;;;;;;;;;;;20.80;43.70;;;;;;474346;251;1074;-47
2021/11/06 11:40:52;;;;;;;;;;;20.80;43.80;;;;;;474490;251;1366;-47
2021/11/06 11:42:53;;;;;;;;;;;20.80;43.80;;;;;;474133;251;1139;-47
2021/11/06 11:44:55;;;;;;;;;;;20.70;43.80;;;;;;474485;251;2208;-48
2021/11/06 11:46:56;;;;;;;;;;;20.70;43.90;;;;;;474365;251;1298;-47
2021/11/06 11:48:57;;;;;;;;;;;20.70;43.90;;;;;;474145;251;1172;-47
2021/11/06 11:50:59;;;;;;;;;;;20.70;43.90;;;;;;474435;251;1241;-47
2021/11/06 11:53:00;;;;;;;;;;;20.70;43.90;;;;;;474593;251;1221;-47
2021/11/06 11:55:02;;;;;;;;;;;20.60;43.90;;;;;;474149;251;1061;-48
2021/11/06 11:57:03;;;;;;;;;;;20.60;44.00;;;;;;474353;251;1067;-48